MDLR/LRM METAR and TAF weather

Enter ICAO airport designator
Station Type Date Time Source
MDLR METAR 2019/08/22 03:00 UTC NOAA

MDLR 220300Z 00000KT 9999 FEW016CB SCT018 25/25 Q1016 CB/E


Station Type Date Time Source
MDLR Decoded METAR 2019/08/22 03:00 UTC NOAA

Station name not available
Aug 21, 2019 - 11:00 PM EDT / 2019.08.22 0300 UTC
Wind: Calm:0
Visibility: greater than 7 mile(s):0
Sky conditions: partly cloudy
Weather: Cumulonimbus clouds observed
Temperature: 77 F (25 C)
Dew Point: 77 F (25 C)
Relative Humidity: 100%
Pressure (altimeter): 30.00 in. Hg (1016 hPa)
ob: MDLR 220300Z 00000KT 9999 FEW016CB SCT018 25/25 Q1016 CB/E
cycle: 3

Station Type Date Time Source
MDLR TAF 2019/08/22 06:03 UTC NOAA

TAF TAF MDLR 220400Z 2206/2306 00000KT 9999 SCT018 PROB30 2206/2212 7000 -RA BKN018
BECMG 2213/2215 12010KT

Example: see airport list